Time,TemperatureF,DewpointF,PressureIn,WindDirection,WindDirectionDegrees,WindSpeedMPH,WindSpeedGustMPH,Humidity,HourlyPrecipIn,Conditions,Clouds,dailyrainin,SoftwareType,DateUTC
2013-01-17 06:00:00,38.0,36.0,29.96,North,-999,-999.0,-999.0,94,-99.99,,,-99.99,,2013-01-17 06:00:00,
2013-01-17 06:42:00,38.0,36.0,29.96,North,-999,-999.0,-999.0,94,-99.99,,,-99.99,,2013-01-17 06:42:00,
2013-01-17 06:52:00,38.0,36.0,29.96,North,-999,-999.0,-999.0,94,-99.99,,,-99.99,,2013-01-17 06:52:00,
2013-01-17 07:00:00,40.0,39.0,29.93,North,-999,-999.0,-999.0,93,-99.99,,,-99.99,,2013-01-17 07:00:00,
2013-01-17 07:32:00,40.0,39.0,29.93,North,-999,-999.0,-999.0,93,-99.99,,,-99.99,,2013-01-17 07:32:00,
2013-01-17 07:42:00,40.0,39.0,29.93,North,-999,-999.0,-999.0,93,-99.99,,,-99.99,,2013-01-17 07:42:00,
2013-01-17 07:52:00,40.0,39.0,29.93,North,-999,-999.0,-999.0,93,-99.99,,,-99.99,,2013-01-17 07:52:00,
2013-01-17 08:00:00,42.0,41.0,29.86,North,-999,-999.0,-999.0,96,-99.99,,,-99.99,,2013-01-17 08:00:00,
2013-01-17 08:42:00,42.0,41.0,29.86,North,-999,-999.0,-999.0,96,-99.99,,,-99.99,,2013-01-17 08:42:00,
2013-01-17 08:52:00,42.0,41.0,29.86,North,-999,-999.0,-999.0,96,-99.99,,,-99.99,,2013-01-17 08:52:00,
2013-01-17 09:00:00,44.0,43.0,29.83,North,-999,-999.0,-999.0,96,-99.99,,,-99.99,,2013-01-17 09:00:00,
2013-01-17 09:42:00,44.0,43.0,29.83,North,-999,-999.0,-999.0,96,-99.99,,,-99.99,,2013-01-17 09:42:00,
2013-01-17 09:52:00,44.0,43.0,29.83,North,-999,-999.0,-999.0,96,-99.99,,,-99.99,,2013-01-17 09:52:00,
2013-01-17 10:00:00,46.0,46.0,29.83,North,-999,-999.0,-999.0,99,-99.99,,,-99.99,,2013-01-17 10:00:00,
2013-01-17 10:42:00,46.0,46.0,29.83,North,-999,-999.0,-999.0,99,-99.99,,,-99.99,,2013-01-17 10:42:00,
2013-01-17 10:52:00,46.0,46.0,29.83,North,-999,-999.0,-999.0,99,-99.99,,,-99.99,,2013-01-17 10:52:00,
2013-01-17 11:00:00,45.0,45.0,29.81,North,-999,-999.0,-999.0,98,-99.99,,,-99.99,,2013-01-17 11:00:00,
2013-01-17 11:42:00,45.0,45.0,29.81,North,-999,-999.0,-999.0,98,-99.99,,,-99.99,,2013-01-17 11:42:00,
2013-01-17 11:52:00,45.0,45.0,29.81,North,-999,-999.0,-999.0,98,-99.99,,,-99.99,,2013-01-17 11:52:00,
2013-01-17 12:00:00,46.0,45.0,29.79,North,-999,-999.0,-999.0,97,-99.99,,,-99.99,,2013-01-17 12:00:00,
2013-01-17 12:42:00,46.0,45.0,29.79,North,-999,-999.0,-999.0,97,-99.99,,,-99.99,,2013-01-17 12:42:00,
2013-01-17 12:52:00,46.0,45.0,29.79,North,-999,-999.0,-999.0,97,-99.99,,,-99.99,,2013-01-17 12:52:00,
2013-01-17 13:00:00,45.0,45.0,29.76,North,-999,-999.0,-999.0,99,-99.99,,,-99.99,,2013-01-17 13:00:00,
2013-01-17 13:42:00,45.0,45.0,29.76,North,-999,-999.0,-999.0,99,-99.99,,,-99.99,,2013-01-17 13:42:00,
2013-01-17 13:52:00,45.0,45.0,29.76,North,-999,-999.0,-999.0,99,-99.99,,,-99.99,,2013-01-17 13:52:00,
2013-01-17 14:00:00,45.0,45.0,29.74,North,-999,-999.0,-999.0,100,-99.99,,,-99.99,,2013-01-17 14:00:00,
2013-01-17 14:42:00,45.0,45.0,29.74,North,-999,-999.0,-999.0,100,-99.99,,,-99.99,,2013-01-17 14:42:00,
2013-01-17 14:52:00,45.0,45.0,29.74,North,-999,-999.0,-999.0,100,-99.99,,,-99.99,,2013-01-17 14:52:00,
2013-01-17 15:00:00,44.0,44.0,29.72,North,-999,-999.0,-999.0,100,-99.99,,,-99.99,,2013-01-17 15:00:00,
2013-01-17 15:42:00,44.0,44.0,29.72,North,-999,-999.0,-999.0,100,-99.99,,,-99.99,,2013-01-17 15:42:00,
2013-01-17 15:52:00,44.0,44.0,29.72,North,-999,-999.0,-999.0,100,-99.99,,,-99.99,,2013-01-17 15:52:00,
2013-01-17 16:00:00,44.0,44.0,29.65,North,-999,-999.0,-999.0,100,-99.99,,,-99.99,,2013-01-17 16:00:00,
2013-01-17 16:42:00,44.0,44.0,29.65,North,-999,-999.0,-999.0,100,-99.99,,,-99.99,,2013-01-17 16:42:00,
2013-01-17 16:52:00,44.0,44.0,29.65,North,-999,-999.0,-999.0,100,-99.99,,,-99.99,,2013-01-17 16:52:00,
2013-01-17 17:00:00,43.0,43.0,29.65,North,-999,-999.0,-999.0,97,-99.99,,,-99.99,,2013-01-17 17:00:00,
2013-01-17 17:42:00,43.0,43.0,29.65,North,-999,-999.0,-999.0,97,-99.99,,,-99.99,,2013-01-17 17:42:00,
2013-01-17 17:53:00,43.0,43.0,29.65,North,-999,-999.0,-999.0,97,-99.99,,,-99.99,,2013-01-17 17:53:00,
2013-01-17 18:00:00,42.0,39.0,29.69,North,-999,-999.0,-999.0,90,-99.99,,,-99.99,,2013-01-17 18:00:00,
2013-01-17 18:42:00,42.0,39.0,29.69,North,-999,-999.0,-999.0,90,-99.99,,,-99.99,,2013-01-17 18:42:00,
2013-01-17 18:52:00,42.0,39.0,29.69,North,-999,-999.0,-999.0,90,-99.99,,,-99.99,,2013-01-17 18:52:00,
2013-01-17 19:00:00,43.0,39.0,29.75,North,-999,-999.0,-999.0,85,-99.99,,,-99.99,,2013-01-17 19:00:00,
2013-01-17 19:32:00,43.0,39.0,29.75,North,-999,-999.0,-999.0,85,-99.99,,,-99.99,,2013-01-17 19:32:00,
2013-01-17 19:42:00,43.0,39.0,29.75,North,-999,-999.0,-999.0,85,-99.99,,,-99.99,,2013-01-17 19:42:00,
2013-01-17 19:52:00,43.0,39.0,29.75,North,-999,-999.0,-999.0,85,-99.99,,,-99.99,,2013-01-17 19:52:00,
2013-01-17 20:00:00,40.0,37.0,29.72,North,-999,-999.0,-999.0,88,-99.99,,,-99.99,,2013-01-17 20:00:00,
2013-01-17 20:42:00,40.0,37.0,29.72,North,-999,-999.0,-999.0,88,-99.99,,,-99.99,,2013-01-17 20:42:00,
2013-01-17 20:53:00,40.0,37.0,29.72,North,-999,-999.0,-999.0,88,-99.99,,,-99.99,,2013-01-17 20:53:00,
2013-01-17 21:00:00,37.0,34.0,29.76,North,-999,-999.0,-999.0,89,-99.99,,,-99.99,,2013-01-17 21:00:00,
2013-01-17 21:42:00,37.0,34.0,29.76,North,-999,-999.0,-999.0,89,-99.99,,,-99.99,,2013-01-17 21:42:00,
2013-01-17 21:52:00,37.0,34.0,29.76,North,-999,-999.0,-999.0,89,-99.99,,,-99.99,,2013-01-17 21:52:00,
2013-01-17 22:00:00,36.0,-99.9,29.78,North,-999,-999.0,-999.0,-999,-99.99,,,-99.99,,2013-01-17 22:00:00,
2013-01-17 22:43:00,36.0,-99.9,29.78,North,-999,-999.0,-999.0,-999,-99.99,,,-99.99,,2013-01-17 22:43:00,
2013-01-17 22:53:00,36.0,-99.9,29.78,North,-999,-999.0,-999.0,-999,-99.99,,,-99.99,,2013-01-17 22:53:00,
2013-01-17 23:00:00,34.0,-99.9,29.81,North,-999,-999.0,-999.0,-999,-99.99,,,-99.99,,2013-01-17 23:00:00,
2013-01-17 23:33:00,34.0,-99.9,29.81,North,-999,-999.0,-999.0,-999,-99.99,,,-99.99,,2013-01-17 23:33:00,
2013-01-17 23:43:00,34.0,-99.9,29.81,North,-999,-999.0,-999.0,-999,-99.99,,,-99.99,,2013-01-17 23:43:00,
2013-01-17 23:53:00,34.0,-99.9,29.81,North,-999,-999.0,-999.0,-999,-99.99,,,-99.99,,2013-01-17 23:53:00,